CheckWX is a tool to help pilots better visualize weather data.  It is not intended as a substitute for an official pre-flight weather briefing.

04:38:49 UTC

EDDN TAF
Nuremberg Airport
Nuremberg, Germany
TAF EDDN 222300Z 2300/2324 12005KT CAVOK BECMG 2308/2310 28006KT BECMG 2318/2320 36005KT

Mar-23@
00:00 UTC

Mar-23 @ 00:00 UTC

Mar-23@
08:00 UTC

Mar-23 @ 08:00 UTC

TAF EDDN 222300Z 2300/2324 12005KT CAVOK
Wind
  • 120° at 5 KTS
Conditions
No significant weather
Cloud Levels
  • No significant clouds

Mar-23@
08:00 UTC

Mar-23 @ 08:00 UTC

Mar-23@
18:00 UTC

Mar-23 @ 18:00 UTC

BECMG 2308/2310 28006KT

Becoming

Becoming Conditions expected by Sat, Mar 23, 2019 @ 10:00 UTC

Wind
  • 280° at 6 KTS
Conditions
No significant weather
Cloud Levels
  • No significant clouds

Mar-23@
18:00 UTC

Mar-23 @ 18:00 UTC

Mar-24@
00:00 UTC

Mar-24 @ 00:00 UTC

BECMG 2318/2320 36005KT

Becoming

Becoming Conditions expected by Sat, Mar 23, 2019 @ 20:00 UTC

Wind
  • 360° at 5 KTS
Conditions
No significant weather
Cloud Levels
  • No significant clouds